sensor_id;sensor_type;location;lat;lon;timestamp;P1;durP1;ratioP1;P2;durP2;ratioP2
72524;SDS011;60547;48.502;8.996;2023-04-01T00:01:07;4.15;;;0.80;;
72524;SDS011;60547;48.502;8.996;2023-04-01T00:03:33;2.53;;;0.80;;
72524;SDS011;60547;48.502;8.996;2023-04-01T00:06:00;3.17;;;0.77;;
72524;SDS011;60547;48.502;8.996;2023-04-01T00:08:26;2.28;;;0.70;;
72524;SDS011;60547;48.502;8.996;2023-04-01T00:10:53;3.22;;;0.70;;
72524;SDS011;60547;48.502;8.996;2023-04-01T00:13:19;2.20;;;0.60;;
72524;SDS011;60547;48.502;8.996;2023-04-01T00:15:45;2.75;;;0.70;;
72524;SDS011;60547;48.502;8.996;2023-04-01T00:18:11;2.63;;;0.60;;
72524;SDS011;60547;48.502;8.996;2023-04-01T00:20:37;1.83;;;0.68;;
72524;SDS011;60547;48.502;8.996;2023-04-01T00:23:03;1.45;;;0.47;;
72524;SDS011;60547;48.502;8.996;2023-04-01T00:25:29;1.55;;;0.40;;
72524;SDS011;60547;48.502;8.996;2023-04-01T00:27:55;1.92;;;0.60;;
72524;SDS011;60547;48.502;8.996;2023-04-01T00:30:20;2.60;;;0.70;;
72524;SDS011;60547;48.502;8.996;2023-04-01T00:32:46;4.47;;;0.70;;
72524;SDS011;60547;48.502;8.996;2023-04-01T00:35:11;1.73;;;0.60;;
72524;SDS011;60547;48.502;8.996;2023-04-01T00:37:37;2.00;;;0.50;;
72524;SDS011;60547;48.502;8.996;2023-04-01T00:40:06;2.85;;;0.70;;
72524;SDS011;60547;48.502;8.996;2023-04-01T00:42:32;3.35;;;0.70;;
72524;SDS011;60547;48.502;8.996;2023-04-01T00:44:58;1.98;;;0.40;;
72524;SDS011;60547;48.502;8.996;2023-04-01T00:47:43;1.02;;;0.30;;
72524;SDS011;60547;48.502;8.996;2023-04-01T00:50:09;1.70;;;0.40;;
72524;SDS011;60547;48.502;8.996;2023-04-01T00:52:35;2.35;;;0.70;;
72524;SDS011;60547;48.502;8.996;2023-04-01T00:55:01;2.53;;;0.60;;
72524;SDS011;60547;48.502;8.996;2023-04-01T00:57:31;1.55;;;0.68;;
72524;SDS011;60547;48.502;8.996;2023-04-01T01:00:03;2.80;;;0.60;;
72524;SDS011;60547;48.502;8.996;2023-04-01T01:02:32;3.63;;;0.55;;
72524;SDS011;60547;48.502;8.996;2023-04-01T01:04:58;2.55;;;0.73;;
72524;SDS011;60547;48.502;8.996;2023-04-01T01:21:20;3.28;;;0.50;;
72524;SDS011;60547;48.502;8.996;2023-04-01T01:27:11;0.75;;;0.40;;
72524;SDS011;60547;48.502;8.996;2023-04-01T01:29:42;1.33;;;0.28;;
72524;SDS011;60547;48.502;8.996;2023-04-01T01:37:40;2.38;;;0.50;;
72524;SDS011;60547;48.502;8.996;2023-04-01T01:40:10;2.03;;;0.50;;
72524;SDS011;60547;48.502;8.996;2023-04-01T01:42:38;0.65;;;0.20;;
72524;SDS011;60547;48.502;8.996;2023-04-01T01:47:35;1.23;;;0.40;;
72524;SDS011;60547;48.502;8.996;2023-04-01T01:50:02;0.65;;;0.30;;
72524;SDS011;60547;48.502;8.996;2023-04-01T01:52:29;1.30;;;0.50;;
72524;SDS011;60547;48.502;8.996;2023-04-01T01:54:55;0.98;;;0.30;;
72524;SDS011;60547;48.502;8.996;2023-04-01T01:57:23;1.58;;;0.40;;
72524;SDS011;60547;48.502;8.996;2023-04-01T01:59:53;0.95;;;0.32;;
72524;SDS011;60547;48.502;8.996;2023-04-01T02:02:22;1.73;;;0.57;;
72524;SDS011;60547;48.502;8.996;2023-04-01T02:04:50;0.88;;;0.35;;
72524;SDS011;60547;48.502;8.996;2023-04-01T02:07:25;0.65;;;0.30;;
72524;SDS011;60547;48.502;8.996;2023-04-01T02:09:56;0.47;;;0.13;;
72524;SDS011;60547;48.502;8.996;2023-04-01T02:12:22;1.80;;;0.50;;
72524;SDS011;60547;48.502;8.996;2023-04-01T02:14:53;1.98;;;0.30;;
72524;SDS011;60547;48.502;8.996;2023-04-01T02:17:26;1.90;;;0.30;;
72524;SDS011;60547;48.502;8.996;2023-04-01T02:22:39;0.52;;;0.30;;
72524;SDS011;60547;48.502;8.996;2023-04-01T02:25:10;0.38;;;0.15;;
72524;SDS011;60547;48.502;8.996;2023-04-01T02:27:38;0.68;;;0.20;;
72524;SDS011;60547;48.502;8.996;2023-04-01T02:30:07;0.75;;;0.50;;
72524;SDS011;60547;48.502;8.996;2023-04-01T02:32:33;0.70;;;0.20;;
72524;SDS011;60547;48.502;8.996;2023-04-01T02:35:03;1.02;;;0.28;;
72524;SDS011;60547;48.502;8.996;2023-04-01T02:37:34;0.63;;;0.20;;
72524;SDS011;60547;48.502;8.996;2023-04-01T02:40:00;0.75;;;0.20;;
72524;SDS011;60547;48.502;8.996;2023-04-01T02:42:27;0.57;;;0.20;;
72524;SDS011;60547;48.502;8.996;2023-04-01T02:44:52;0.45;;;0.25;;
72524;SDS011;60547;48.502;8.996;2023-04-01T02:47:17;0.30;;;0.30;;
72524;SDS011;60547;48.502;8.996;2023-04-01T02:49:43;0.25;;;0.17;;
72524;SDS011;60547;48.502;8.996;2023-04-01T02:52:08;2.08;;;0.47;;
72524;SDS011;60547;48.502;8.996;2023-04-01T02:54:34;0.82;;;0.30;;
72524;SDS011;60547;48.502;8.996;2023-04-01T02:56:59;0.80;;;0.20;;
72524;SDS011;60547;48.502;8.996;2023-04-01T02:59:25;0.60;;;0.10;;
72524;SDS011;60547;48.502;8.996;2023-04-01T03:01:51;0.40;;;0.20;;
72524;SDS011;60547;48.502;8.996;2023-04-01T03:04:16;1.02;;;0.20;;
72524;SDS011;60547;48.502;8.996;2023-04-01T03:06:42;0.50;;;0.28;;
72524;SDS011;60547;48.502;8.996;2023-04-01T03:09:07;0.57;;;0.10;;
72524;SDS011;60547;48.502;8.996;2023-04-01T03:11:33;0.25;;;0.22;;
72524;SDS011;60547;48.502;8.996;2023-04-01T03:13:58;0.20;;;0.13;;
72524;SDS011;60547;48.502;8.996;2023-04-01T03:16:24;1.13;;;0.57;;
72524;SDS011;60547;48.502;8.996;2023-04-01T03:18:49;0.40;;;0.20;;
72524;SDS011;60547;48.502;8.996;2023-04-01T03:21:26;0.52;;;0.20;;
72524;SDS011;60547;48.502;8.996;2023-04-01T03:23:52;0.95;;;0.40;;
72524;SDS011;60547;48.502;8.996;2023-04-01T03:26:17;1.02;;;0.10;;
72524;SDS011;60547;48.502;8.996;2023-04-01T03:28:43;0.35;;;0.15;;
72524;SDS011;60547;48.502;8.996;2023-04-01T03:31:09;0.08;;;0.08;;
72524;SDS011;60547;48.502;8.996;2023-04-01T03:33:35;1.13;;;0.10;;
72524;SDS011;60547;48.502;8.996;2023-04-01T03:36:01;0.90;;;0.17;;
72524;SDS011;60547;48.502;8.996;2023-04-01T03:38:28;0.95;;;0.30;;
72524;SDS011;60547;48.502;8.996;2023-04-01T03:40:53;0.60;;;0.50;;
72524;SDS011;60547;48.502;8.996;2023-04-01T03:43:19;0.60;;;0.28;;
72524;SDS011;60547;48.502;8.996;2023-04-01T03:45:49;0.30;;;0.30;;
72524;SDS011;60547;48.502;8.996;2023-04-01T03:48:16;2.72;;;0.50;;
72524;SDS011;60547;48.502;8.996;2023-04-01T03:50:42;0.35;;;0.15;;
72524;SDS011;60547;48.502;8.996;2023-04-01T03:53:08;2.10;;;0.22;;
72524;SDS011;60547;48.502;8.996;2023-04-01T03:55:35;2.08;;;0.15;;
72524;SDS011;60547;48.502;8.996;2023-04-01T03:58:01;0.38;;;0.22;;
72524;SDS011;60547;48.502;8.996;2023-04-01T04:00:28;0.63;;;0.20;;
72524;SDS011;60547;48.502;8.996;2023-04-01T04:02:54;0.43;;;0.30;;
72524;SDS011;60547;48.502;8.996;2023-04-01T04:05:22;0.45;;;0.40;;
72524;SDS011;60547;48.502;8.996;2023-04-01T04:07:48;0.20;;;0.13;;
72524;SDS011;60547;48.502;8.996;2023-04-01T04:10:13;3.00;;;0.60;;
72524;SDS011;60547;48.502;8.996;2023-04-01T04:12:39;1.40;;;0.50;;
72524;SDS011;60547;48.502;8.996;2023-04-01T04:15:06;1.70;;;0.60;;
72524;SDS011;60547;48.502;8.996;2023-04-01T04:17:33;1.27;;;0.52;;
72524;SDS011;60547;48.502;8.996;2023-04-01T04:19:58;0.65;;;0.20;;
72524;SDS011;60547;48.502;8.996;2023-04-01T04:22:24;2.05;;;0.60;;
72524;SDS011;60547;48.502;8.996;2023-04-01T04:24:49;2.05;;;0.50;;
72524;SDS011;60547;48.502;8.996;2023-04-01T04:27:15;1.33;;;0.50;;
72524;SDS011;60547;48.502;8.996;2023-04-01T04:29:40;1.75;;;0.57;;
72524;SDS011;60547;48.502;8.996;2023-04-01T04:32:06;0.70;;;0.30;;
72524;SDS011;60547;48.502;8.996;2023-04-01T04:34:32;0.88;;;0.47;;
72524;SDS011;60547;48.502;8.996;2023-04-01T04:36:57;0.65;;;0.40;;
72524;SDS011;60547;48.502;8.996;2023-04-01T04:39:23;1.23;;;0.40;;
72524;SDS011;60547;48.502;8.996;2023-04-01T04:41:48;6.10;;;1.02;;
72524;SDS011;60547;48.502;8.996;2023-04-01T04:44:14;0.47;;;0.40;;
72524;SDS011;60547;48.502;8.996;2023-04-01T04:46:39;1.60;;;0.40;;
72524;SDS011;60547;48.502;8.996;2023-04-01T04:49:05;2.83;;;0.50;;
72524;SDS011;60547;48.502;8.996;2023-04-01T04:51:31;0.57;;;0.30;;
72524;SDS011;60547;48.502;8.996;2023-04-01T04:54:03;2.33;;;0.70;;
72524;SDS011;60547;48.502;8.996;2023-04-01T04:56:30;2.00;;;0.60;;
72524;SDS011;60547;48.502;8.996;2023-04-01T04:58:56;4.47;;;1.13;;
72524;SDS011;60547;48.502;8.996;2023-04-01T05:01:23;1.80;;;0.70;;
72524;SDS011;60547;48.502;8.996;2023-04-01T05:03:49;2.97;;;0.73;;
72524;SDS011;60547;48.502;8.996;2023-04-01T05:06:15;1.65;;;0.60;;
72524;SDS011;60547;48.502;8.996;2023-04-01T05:08:42;3.72;;;0.70;;
72524;SDS011;60547;48.502;8.996;2023-04-01T05:11:12;2.67;;;0.52;;
72524;SDS011;60547;48.502;8.996;2023-04-01T05:13:40;3.53;;;0.55;;
72524;SDS011;60547;48.502;8.996;2023-04-01T05:16:10;1.10;;;0.43;;
72524;SDS011;60547;48.502;8.996;2023-04-01T05:18:37;0.70;;;0.40;;
72524;SDS011;60547;48.502;8.996;2023-04-01T05:21:03;2.88;;;0.40;;
72524;SDS011;60547;48.502;8.996;2023-04-01T05:23:30;2.38;;;0.70;;
72524;SDS011;60547;48.502;8.996;2023-04-01T05:25:56;0.80;;;0.50;;
72524;SDS011;60547;48.502;8.996;2023-04-01T05:28:22;2.60;;;0.70;;
72524;SDS011;60547;48.502;8.996;2023-04-01T05:30:48;0.73;;;0.40;;
72524;SDS011;60547;48.502;8.996;2023-04-01T05:33:13;1.23;;;0.40;;
72524;SDS011;60547;48.502;8.996;2023-04-01T05:35:40;1.45;;;0.52;;
72524;SDS011;60547;48.502;8.996;2023-04-01T05:38:06;1.65;;;0.55;;
72524;SDS011;60547;48.502;8.996;2023-04-01T05:40:31;0.77;;;0.30;;
72524;SDS011;60547;48.502;8.996;2023-04-01T05:42:58;1.25;;;0.30;;
72524;SDS011;60547;48.502;8.996;2023-04-01T05:45:24;0.82;;;0.60;;
72524;SDS011;60547;48.502;8.996;2023-04-01T05:47:49;3.03;;;0.40;;
72524;SDS011;60547;48.502;8.996;2023-04-01T05:50:15;1.75;;;0.40;;
72524;SDS011;60547;48.502;8.996;2023-04-01T05:52:41;1.85;;;0.40;;
72524;SDS011;60547;48.502;8.996;2023-04-01T05:55:07;1.70;;;0.70;;
72524;SDS011;60547;48.502;8.996;2023-04-01T05:57:33;1.73;;;0.68;;
72524;SDS011;60547;48.502;8.996;2023-04-01T05:59:58;1.05;;;0.50;;
72524;SDS011;60547;48.502;8.996;2023-04-01T06:02:24;0.68;;;0.40;;
72524;SDS011;60547;48.502;8.996;2023-04-01T06:04:49;0.65;;;0.40;;
72524;SDS011;60547;48.502;8.996;2023-04-01T06:07:26;0.95;;;0.32;;
72524;SDS011;60547;48.502;8.996;2023-04-01T06:09:53;0.70;;;0.20;;
72524;SDS011;60547;48.502;8.996;2023-04-01T06:15:07;1.67;;;0.40;;
72524;SDS011;60547;48.502;8.996;2023-04-01T06:20:43;0.93;;;0.40;;
72524;SDS011;60547;48.502;8.996;2023-04-01T06:23:25;0.52;;;0.40;;
72524;SDS011;60547;48.502;8.996;2023-04-01T06:26:15;2.80;;;0.75;;
72524;SDS011;60547;48.502;8.996;2023-04-01T06:34:30;1.75;;;0.50;;
72524;SDS011;60547;48.502;8.996;2023-04-01T06:37:19;1.52;;;0.47;;
72524;SDS011;60547;48.502;8.996;2023-04-01T06:40:01;1.55;;;0.63;;
72524;SDS011;60547;48.502;8.996;2023-04-01T06:50:44;1.48;;;0.60;;
72524;SDS011;60547;48.502;8.996;2023-04-01T06:56:25;0.77;;;0.45;;
72524;SDS011;60547;48.502;8.996;2023-04-01T07:01:28;2.28;;;0.60;;
72524;SDS011;60547;48.502;8.996;2023-04-01T07:04:17;1.63;;;0.47;;
72524;SDS011;60547;48.502;8.996;2023-04-01T07:06:58;0.95;;;0.40;;
72524;SDS011;60547;48.502;8.996;2023-04-01T07:09:34;0.93;;;0.50;;
72524;SDS011;60547;48.502;8.996;2023-04-01T07:12:09;1.75;;;1.02;;
72524;SDS011;60547;48.502;8.996;2023-04-01T07:14:40;1.67;;;0.50;;
72524;SDS011;60547;48.502;8.996;2023-04-01T07:20:05;1.48;;;0.55;;
72524;SDS011;60547;48.502;8.996;2023-04-01T07:22:42;1.88;;;0.52;;
72524;SDS011;60547;48.502;8.996;2023-04-01T07:25:12;1.58;;;0.60;;
72524;SDS011;60547;48.502;8.996;2023-04-01T07:28:01;1.35;;;0.43;;
72524;SDS011;60547;48.502;8.996;2023-04-01T07:30:33;1.60;;;0.60;;
72524;SDS011;60547;48.502;8.996;2023-04-01T07:33:28;3.42;;;0.60;;
72524;SDS011;60547;48.502;8.996;2023-04-01T07:44:35;2.42;;;0.52;;
72524;SDS011;60547;48.502;8.996;2023-04-01T07:55:49;2.15;;;0.60;;
72524;SDS011;60547;48.502;8.996;2023-04-01T08:05:40;1.30;;;0.60;;
72524;SDS011;60547;48.502;8.996;2023-04-01T08:10:54;1.42;;;0.70;;
72524;SDS011;60547;48.502;8.996;2023-04-01T08:19:21;2.10;;;0.90;;
72524;SDS011;60547;48.502;8.996;2023-04-01T08:22:15;1.23;;;0.60;;
72524;SDS011;60547;48.502;8.996;2023-04-01T08:24:46;4.03;;;0.75;;
72524;SDS011;60547;48.502;8.996;2023-04-01T08:29:57;1.73;;;0.70;;
72524;SDS011;60547;48.502;8.996;2023-04-01T08:32:32;1.52;;;0.70;;
72524;SDS011;60547;48.502;8.996;2023-04-01T08:35:07;1.73;;;0.70;;
72524;SDS011;60547;48.502;8.996;2023-04-01T08:37:35;1.08;;;0.63;;
72524;SDS011;60547;48.502;8.996;2023-04-01T08:42:45;2.45;;;0.98;;
72524;SDS011;60547;48.502;8.996;2023-04-01T08:45:48;3.28;;;0.60;;
72524;SDS011;60547;48.502;8.996;2023-04-01T08:59:35;2.42;;;0.63;;
72524;SDS011;60547;48.502;8.996;2023-04-01T09:02:39;1.13;;;0.60;;
72524;SDS011;60547;48.502;8.996;2023-04-01T09:10:55;2.08;;;0.60;;
72524;SDS011;60547;48.502;8.996;2023-04-01T09:14:07;2.45;;;1.00;;
72524;SDS011;60547;48.502;8.996;2023-04-01T09:17:00;1.75;;;0.77;;
72524;SDS011;60547;48.502;8.996;2023-04-01T09:23:39;2.40;;;0.63;;
72524;SDS011;60547;48.502;8.996;2023-04-01T09:34:34;1.85;;;0.50;;
72524;SDS011;60547;48.502;8.996;2023-04-01T09:37:20;2.10;;;0.80;;
72524;SDS011;60547;48.502;8.996;2023-04-01T09:40:01;2.60;;;0.88;;
72524;SDS011;60547;48.502;8.996;2023-04-01T09:48:50;0.65;;;0.32;;
72524;SDS011;60547;48.502;8.996;2023-04-01T09:54:31;1.08;;;0.60;;
72524;SDS011;60547;48.502;8.996;2023-04-01T10:00:06;2.58;;;0.50;;
72524;SDS011;60547;48.502;8.996;2023-04-01T10:05:37;1.90;;;0.75;;
72524;SDS011;60547;48.502;8.996;2023-04-01T10:08:27;2.13;;;0.80;;
72524;SDS011;60547;48.502;8.996;2023-04-01T10:14:22;1.70;;;0.57;;
72524;SDS011;60547;48.502;8.996;2023-04-01T10:20:01;1.90;;;0.50;;
72524;SDS011;60547;48.502;8.996;2023-04-01T10:33:41;0.90;;;0.60;;
72524;SDS011;60547;48.502;8.996;2023-04-01T10:47:32;1.30;;;0.73;;
72524;SDS011;60547;48.502;8.996;2023-04-01T11:06:24;1.95;;;0.95;;
72524;SDS011;60547;48.502;8.996;2023-04-01T11:14:59;1.95;;;0.70;;
72524;SDS011;60547;48.502;8.996;2023-04-01T11:29:15;1.23;;;0.57;;
72524;SDS011;60547;48.502;8.996;2023-04-01T11:32:16;1.55;;;0.70;;
72524;SDS011;60547;48.502;8.996;2023-04-01T11:45:56;1.45;;;0.55;;
72524;SDS011;60547;48.502;8.996;2023-04-01T12:08:01;3.00;;;1.10;;
72524;SDS011;60547;48.502;8.996;2023-04-01T12:16:23;5.53;;;1.00;;
72524;SDS011;60547;48.502;8.996;2023-04-01T12:21:38;4.85;;;1.30;;
72524;SDS011;60547;48.502;8.996;2023-04-01T12:29:48;3.65;;;1.27;;
72524;SDS011;60547;48.502;8.996;2023-04-01T12:32:31;2.20;;;0.82;;
72524;SDS011;60547;48.502;8.996;2023-04-01T12:35:21;1.15;;;0.45;;
72524;SDS011;60547;48.502;8.996;2023-04-01T12:38:08;0.70;;;0.52;;
72524;SDS011;60547;48.502;8.996;2023-04-01T12:41:14;1.63;;;0.70;;
72524;SDS011;60547;48.502;8.996;2023-04-01T12:44:32;1.13;;;0.50;;
72524;SDS011;60547;48.502;8.996;2023-04-01T12:46:49;0.98;;;0.50;;
72524;SDS011;60547;48.502;8.996;2023-04-01T12:58:00;0.95;;;0.50;;
72524;SDS011;60547;48.502;8.996;2023-04-01T13:00:46;1.08;;;0.28;;
72524;SDS011;60547;48.502;8.996;2023-04-01T13:08:43;0.73;;;0.40;;
72524;SDS011;60547;48.502;8.996;2023-04-01T13:17:20;0.50;;;0.35;;
72524;SDS011;60547;48.502;8.996;2023-04-01T13:19:56;0.95;;;0.32;;
72524;SDS011;60547;48.502;8.996;2023-04-01T13:26:03;0.60;;;0.40;;
72524;SDS011;60547;48.502;8.996;2023-04-01T13:28:32;1.85;;;0.50;;
72524;SDS011;60547;48.502;8.996;2023-04-01T13:36:37;1.75;;;0.73;;
72524;SDS011;60547;48.502;8.996;2023-04-01T13:39:35;0.55;;;0.35;;
72524;SDS011;60547;48.502;8.996;2023-04-01T13:42:24;0.52;;;0.15;;
72524;SDS011;60547;48.502;8.996;2023-04-01T13:44:56;5.47;;;0.70;;
72524;SDS011;60547;48.502;8.996;2023-04-01T13:47:43;2.20;;;1.00;;
72524;SDS011;60547;48.502;8.996;2023-04-01T14:00:54;1.80;;;0.40;;
72524;SDS011;60547;48.502;8.996;2023-04-01T14:03:37;1.70;;;0.50;;
72524;SDS011;60547;48.502;8.996;2023-04-01T14:06:39;1.25;;;0.75;;
72524;SDS011;60547;48.502;8.996;2023-04-01T14:09:31;1.17;;;0.30;;
72524;SDS011;60547;48.502;8.996;2023-04-01T14:23:59;1.17;;;0.60;;
72524;SDS011;60547;48.502;8.996;2023-04-01T14:32:24;1.13;;;0.40;;
72524;SDS011;60547;48.502;8.996;2023-04-01T14:35:31;1.20;;;0.60;;
72524;SDS011;60547;48.502;8.996;2023-04-01T14:46:23;1.33;;;0.70;;
72524;SDS011;60547;48.502;8.996;2023-04-01T14:54:52;1.70;;;0.80;;
72524;SDS011;60547;48.502;8.996;2023-04-01T14:57:27;2.80;;;1.17;;
72524;SDS011;60547;48.502;8.996;2023-04-01T14:59:59;2.63;;;1.02;;
72524;SDS011;60547;48.502;8.996;2023-04-01T15:05:18;3.10;;;0.93;;
72524;SDS011;60547;48.502;8.996;2023-04-01T15:08:00;2.40;;;0.88;;
72524;SDS011;60547;48.502;8.996;2023-04-01T15:13:10;0.98;;;0.65;;
72524;SDS011;60547;48.502;8.996;2023-04-01T15:24:37;1.65;;;0.80;;
72524;SDS011;60547;48.502;8.996;2023-04-01T15:38:08;2.53;;;0.80;;
72524;SDS011;60547;48.502;8.996;2023-04-01T15:41:01;1.45;;;0.77;;
72524;SDS011;60547;48.502;8.996;2023-04-01T15:43:44;1.73;;;0.80;;
72524;SDS011;60547;48.502;8.996;2023-04-01T15:46:30;1.13;;;0.70;;
72524;SDS011;60547;48.502;8.996;2023-04-01T15:52:05;1.77;;;0.88;;
72524;SDS011;60547;48.502;8.996;2023-04-01T16:00:52;2.35;;;1.10;;
72524;SDS011;60547;48.502;8.996;2023-04-01T16:08:58;2.70;;;1.02;;
72524;SDS011;60547;48.502;8.996;2023-04-01T16:11:57;1.73;;;0.80;;
72524;SDS011;60547;48.502;8.996;2023-04-01T16:20:49;4.35;;;1.40;;
72524;SDS011;60547;48.502;8.996;2023-04-01T16:23:18;4.88;;;2.55;;
72524;SDS011;60547;48.502;8.996;2023-04-01T16:26:05;3.08;;;1.40;;
72524;SDS011;60547;48.502;8.996;2023-04-01T16:31:34;2.70;;;1.40;;
72524;SDS011;60547;48.502;8.996;2023-04-01T16:34:14;4.43;;;1.90;;
72524;SDS011;60547;48.502;8.996;2023-04-01T16:45:21;5.05;;;2.00;;
72524;SDS011;60547;48.502;8.996;2023-04-01T16:48:12;3.63;;;1.75;;
72524;SDS011;60547;48.502;8.996;2023-04-01T16:50:43;3.45;;;1.40;;
72524;SDS011;60547;48.502;8.996;2023-04-01T16:53:36;3.55;;;1.20;;
72524;SDS011;60547;48.502;8.996;2023-04-01T16:56:10;2.78;;;1.00;;
72524;SDS011;60547;48.502;8.996;2023-04-01T16:58:54;3.67;;;1.15;;
72524;SDS011;60547;48.502;8.996;2023-04-01T17:01:22;3.28;;;1.33;;
72524;SDS011;60547;48.502;8.996;2023-04-01T17:03:57;4.43;;;1.65;;
72524;SDS011;60547;48.502;8.996;2023-04-01T17:09:06;6.80;;;2.92;;
72524;SDS011;60547;48.502;8.996;2023-04-01T17:12:24;5.72;;;2.63;;
72524;SDS011;60547;48.502;8.996;2023-04-01T17:15:20;4.75;;;2.13;;
72524;SDS011;60547;48.502;8.996;2023-04-01T17:17:59;7.38;;;3.63;;
72524;SDS011;60547;48.502;8.996;2023-04-01T17:23:07;5.45;;;2.72;;
72524;SDS011;60547;48.502;8.996;2023-04-01T17:33:59;4.05;;;1.50;;
72524;SDS011;60547;48.502;8.996;2023-04-01T17:48:12;6.72;;;2.58;;
72524;SDS011;60547;48.502;8.996;2023-04-01T17:56:33;6.72;;;3.85;;
72524;SDS011;60547;48.502;8.996;2023-04-01T17:59:21;9.23;;;5.35;;
72524;SDS011;60547;48.502;8.996;2023-04-01T18:07:16;6.18;;;3.70;;
72524;SDS011;60547;48.502;8.996;2023-04-01T18:21:46;5.93;;;3.65;;
72524;SDS011;60547;48.502;8.996;2023-04-01T18:24:40;8.45;;;6.10;;
72524;SDS011;60547;48.502;8.996;2023-04-01T18:38:11;3.13;;;1.40;;
72524;SDS011;60547;48.502;8.996;2023-04-01T18:43:30;2.30;;;1.10;;
72524;SDS011;60547;48.502;8.996;2023-04-01T18:46:07;0.93;;;0.40;;
72524;SDS011;60547;48.502;8.996;2023-04-01T18:48:48;0.88;;;0.50;;
72524;SDS011;60547;48.502;8.996;2023-04-01T18:53:48;1.17;;;0.45;;
72524;SDS011;60547;48.502;8.996;2023-04-01T19:05:04;1.55;;;0.90;;
72524;SDS011;60547;48.502;8.996;2023-04-01T19:10:12;1.42;;;0.80;;
72524;SDS011;60547;48.502;8.996;2023-04-01T19:15:40;4.38;;;1.98;;
72524;SDS011;60547;48.502;8.996;2023-04-01T19:32:06;4.22;;;1.80;;
72524;SDS011;60547;48.502;8.996;2023-04-01T19:34:45;3.72;;;1.95;;
72524;SDS011;60547;48.502;8.996;2023-04-01T19:37:40;4.60;;;2.28;;
72524;SDS011;60547;48.502;8.996;2023-04-01T19:51:29;3.45;;;1.40;;
72524;SDS011;60547;48.502;8.996;2023-04-01T19:57:11;3.28;;;0.98;;
72524;SDS011;60547;48.502;8.996;2023-04-01T20:07:52;2.05;;;0.85;;
72524;SDS011;60547;48.502;8.996;2023-04-01T20:10:21;2.38;;;1.30;;
72524;SDS011;60547;48.502;8.996;2023-04-01T20:13:39;2.70;;;1.30;;
72524;SDS011;60547;48.502;8.996;2023-04-01T20:16:03;3.53;;;1.20;;
72524;SDS011;60547;48.502;8.996;2023-04-01T20:23:59;2.38;;;1.17;;
72524;SDS011;60547;48.502;8.996;2023-04-01T20:26:33;3.13;;;1.20;;
72524;SDS011;60547;48.502;8.996;2023-04-01T20:29:23;3.85;;;1.30;;
72524;SDS011;60547;48.502;8.996;2023-04-01T20:32:03;3.78;;;1.40;;
72524;SDS011;60547;48.502;8.996;2023-04-01T20:34:40;6.30;;;1.75;;
72524;SDS011;60547;48.502;8.996;2023-04-01T20:37:16;2.05;;;1.00;;
72524;SDS011;60547;48.502;8.996;2023-04-01T20:40:12;2.10;;;1.05;;
72524;SDS011;60547;48.502;8.996;2023-04-01T20:43:03;3.10;;;1.15;;
72524;SDS011;60547;48.502;8.996;2023-04-01T20:51:14;3.05;;;1.67;;
72524;SDS011;60547;48.502;8.996;2023-04-01T21:01:59;3.20;;;1.40;;
72524;SDS011;60547;48.502;8.996;2023-04-01T21:07:37;3.35;;;1.50;;
72524;SDS011;60547;48.502;8.996;2023-04-01T21:18:49;2.13;;;1.05;;
72524;SDS011;60547;48.502;8.996;2023-04-01T21:21:25;3.08;;;1.35;;
72524;SDS011;60547;48.502;8.996;2023-04-01T21:38:14;6.80;;;2.30;;
72524;SDS011;60547;48.502;8.996;2023-04-01T22:00:18;3.80;;;1.63;;
72524;SDS011;60547;48.502;8.996;2023-04-01T22:05:27;3.67;;;1.25;;
72524;SDS011;60547;48.502;8.996;2023-04-01T22:10:50;2.50;;;0.90;;
72524;SDS011;60547;48.502;8.996;2023-04-01T22:13:39;4.72;;;2.05;;
72524;SDS011;60547;48.502;8.996;2023-04-01T22:21:23;5.32;;;2.10;;
72524;SDS011;60547;48.502;8.996;2023-04-01T22:32:15;3.97;;;1.80;;
72524;SDS011;60547;48.502;8.996;2023-04-01T22:34:57;2.85;;;1.08;;
72524;SDS011;60547;48.502;8.996;2023-04-01T22:48:14;3.08;;;1.45;;
72524;SDS011;60547;48.502;8.996;2023-04-01T22:53:33;3.22;;;1.45;;
72524;SDS011;60547;48.502;8.996;2023-04-01T22:56:11;3.90;;;2.00;;
72524;SDS011;60547;48.502;8.996;2023-04-01T22:58:42;5.03;;;1.80;;
72524;SDS011;60547;48.502;8.996;2023-04-01T23:01:18;4.15;;;2.10;;
72524;SDS011;60547;48.502;8.996;2023-04-01T23:03:47;3.78;;;1.52;;
72524;SDS011;60547;48.502;8.996;2023-04-01T23:06:16;3.58;;;1.65;;
72524;SDS011;60547;48.502;8.996;2023-04-01T23:19:36;3.47;;;1.05;;
72524;SDS011;60547;48.502;8.996;2023-04-01T23:36:00;1.17;;;0.73;;
72524;SDS011;60547;48.502;8.996;2023-04-01T23:38:36;2.65;;;0.70;;
72524;SDS011;60547;48.502;8.996;2023-04-01T23:41:04;1.77;;;0.80;;
72524;SDS011;60547;48.502;8.996;2023-04-01T23:43:32;1.65;;;0.82;;
72524;SDS011;60547;48.502;8.996;2023-04-01T23:46:02;1.50;;;0.80;;
72524;SDS011;60547;48.502;8.996;2023-04-01T23:51:23;2.00;;;1.00;;
72524;SDS011;60547;48.502;8.996;2023-04-01T23:54:00;2.03;;;0.77;;
72524;SDS011;60547;48.502;8.996;2023-04-01T23:57:03;2.25;;;0.90;;
